Terminal Aerodrome Forecast
Issued by NWS Northern Indiana

Home | Current Version | Previous Version | Graphics & Text | Print | Product List | Glossary On
Versions: 1 2 3 4 5 6 7 8 9 10 11 12 13 14
260
FTUS43 KIWX 151138
TAFFWA
TAF
KFWA 151138Z 1512/1612 17010KT P6SM VCSH BKN100
     FM151600 20014G20KT 4SM -SHRA BR OVC015
     FM152300 26013KT P6SM OVC012
     FM160400 27015KT P6SM OVC015=

USA.gov is the U.S. government's official web portal to all federal, state and local government web resources and services.